Time;durP1;ratioP1;P1;durP2;ratioP2;P2;SDS_P1;SDS_P2;PMS_P1;PMS_P2;Temp;Humidity;BMP_temperature;BMP_pressure;BME280_temperature;BME280_humidity;BME280_pressure;Samples;Min_cycle;Max_cycle;Signal;HPM_P1;HPM_P2
2023/08/11 00:01:41;;;;;;;3.00;2.80;;;;;;;14.00;100.00;96908.50;5031804;27;101966;-73
2023/08/11 00:04:08;;;;;;;3.70;3.40;;;;;;;13.87;100.00;96908.94;5034728;27;105321;-73
2023/08/11 00:06:37;;;;;;;3.50;3.20;;;;;;;13.93;100.00;96912.44;5031956;27;101943;-72
2023/08/11 00:09:07;;;;;;;3.17;2.87;;;;;;;13.83;100.00;96910.53;5031774;27;105168;-72
2023/08/11 00:11:34;;;;;;;3.13;2.83;;;;;;;13.74;100.00;96903.25;5031400;27;105402;-74
2023/08/11 00:14:02;;;;;;;3.83;3.13;;;;;;;13.58;100.00;96909.56;5032076;27;102193;-73
2023/08/11 00:16:28;;;;;;;3.30;2.80;;;;;;;13.65;100.00;96910.13;5031812;27;104433;-73
2023/08/11 00:18:55;;;;;;;3.60;3.00;;;;;;;13.69;100.00;96898.66;5049456;27;102818;-73
2023/08/11 00:21:23;;;;;;;5.37;3.10;;;;;;;13.68;100.00;96898.94;5031738;27;101975;-73
2023/08/11 00:23:52;;;;;;;3.40;3.10;;;;;;;13.49;100.00;96895.03;5031774;27;105481;-73
2023/08/11 00:26:19;;;;;;;3.50;3.20;;;;;;;13.51;100.00;96901.75;5034433;27;105810;-73
2023/08/11 00:28:46;;;;;;;3.87;3.57;;;;;;;13.57;100.00;96898.03;5031578;27;104986;-73
2023/08/11 00:31:13;;;;;;;3.50;3.20;;;;;;;13.53;100.00;96898.81;5030874;27;105823;-73
2023/08/11 00:33:41;;;;;;;3.73;2.90;;;;;;;13.44;100.00;96911.03;5050091;27;102253;-74
2023/08/11 00:36:09;;;;;;;3.40;3.10;;;;;;;13.37;100.00;96902.44;5031716;27;104816;-74
2023/08/11 00:38:38;;;;;;;3.70;2.97;;;;;;;13.39;100.00;96901.13;5030866;27;105146;-74
2023/08/11 00:41:06;;;;;;;3.00;2.80;;;;;;;13.35;100.00;96909.91;5031693;27;102535;-74
2023/08/11 00:43:34;;;;;;;3.30;3.00;;;;;;;13.44;100.00;96906.50;5031578;27;105117;-74
2023/08/11 00:46:10;;;;;;;3.30;3.00;;;;;;;13.36;100.00;96901.63;5031060;27;105948;-74
2023/08/11 00:48:37;;;;;;;3.40;3.10;;;;;;;13.44;100.00;96905.69;5034890;27;101933;-74
2023/08/11 00:51:06;;;;;;;3.50;3.20;;;;;;;13.46;100.00;96907.03;5031087;27;105684;-74
2023/08/11 00:53:33;;;;;;;4.43;2.90;;;;;;;13.44;100.00;96906.50;5034881;27;102186;-71
2023/08/11 00:56:02;;;;;;;3.07;2.87;;;;;;;13.33;100.00;96902.16;5034893;27;105326;-71
2023/08/11 00:58:32;;;;;;;4.00;3.20;;;;;;;13.18;100.00;96906.53;5051984;27;103094;-71
2023/08/11 01:01:00;;;;;;;3.17;2.97;;;;;;;13.16;100.00;96903.31;5034914;27;102017;-71
2023/08/11 01:03:27;;;;;;;3.70;2.83;;;;;;;13.18;100.00;96906.53;5034804;27;104906;-71
2023/08/11 01:06:04;;;;;;;3.13;2.80;;;;;;;13.04;100.00;96906.13;5052438;27;102134;-71
2023/08/11 01:08:38;;;;;;;2.93;2.73;;;;;;;12.96;100.00;96905.78;5034962;27;102120;-71
2023/08/11 01:11:17;;;;;;;3.00;2.80;;;;;;;13.02;100.00;96908.25;5037548;27;105505;-71
2023/08/11 01:13:54;;;;;;;4.70;3.20;;;;;;;13.04;100.00;96905.34;5018288;27;101873;-71
2023/08/11 01:16:24;;;;;;;3.37;3.07;;;;;;;13.11;100.00;96903.28;5034645;27;104871;-71
2023/08/11 01:18:52;;;;;;;3.13;2.77;;;;;;;12.99;100.00;96905.31;5033889;27;105521;-71
2023/08/11 01:21:21;;;;;;;3.47;2.67;;;;;;;13.00;100.00;96910.41;5034476;27;102086;-71
2023/08/11 01:23:50;;;;;;;3.10;2.83;;;;;;;12.97;100.00;96907.44;5052820;27;102493;-71
2023/08/11 01:26:18;;;;;;;3.03;2.70;;;;;;;12.82;100.00;96904.56;5033796;27;104040;-71
2023/08/11 01:28:45;;;;;;;4.37;3.00;;;;;;;12.88;100.00;96911.56;5034507;27;101988;-71
2023/08/11 01:31:12;;;;;;;3.97;3.50;;;;;;;12.85;100.00;96915.53;5037135;27;105280;-71
2023/08/11 01:33:39;;;;;;;4.47;3.20;;;;;;;12.86;100.00;96919.81;5034276;27;101913;-71
2023/08/11 01:36:08;;;;;;;3.60;3.30;;;;;;;12.75;100.00;96919.97;5034039;27;105279;-71
2023/08/11 01:38:37;;;;;;;3.77;3.27;;;;;;;12.87;100.00;96912.63;5033622;27;105397;-71
2023/08/11 01:41:06;;;;;;;3.63;3.33;;;;;;;12.89;100.00;96916.66;5034206;27;101930;-71
2023/08/11 01:43:34;;;;;;;4.90;2.93;;;;;;;12.88;100.00;96908.91;5034211;27;103885;-72
2023/08/11 01:46:03;;;;;;;3.37;3.07;;;;;;;12.88;100.00;96914.22;5033496;27;106041;-72
2023/08/11 01:48:31;;;;;;;2.97;2.77;;;;;;;12.77;100.00;96920.53;5034020;27;101885;-72
2023/08/11 01:50:58;;;;;;;3.43;3.00;;;;;;;12.78;100.00;96922.13;5052272;27;102878;-72
2023/08/11 01:53:26;;;;;;;3.03;2.83;;;;;;;12.77;100.00;96924.00;5036877;27;105613;-72
2023/08/11 01:55:54;;;;;;;3.20;3.00;;;;;;;12.85;100.00;96930.75;5052277;27;102539;-72
2023/08/11 01:58:23;;;;;;;3.27;2.97;;;;;;;12.82;100.00;96920.59;5032366;27;105819;-72
2023/08/11 02:00:50;;;;;;;2.90;2.70;;;;;;;12.73;100.00;96919.41;5033878;27;101864;-72
2023/08/11 02:03:19;;;;;;;3.10;2.80;;;;;;;12.76;100.00;96918.91;5033577;27;105720;-71
2023/08/11 02:05:46;;;;;;;3.30;3.10;;;;;;;12.66;100.00;96916.97;5033266;27;104484;-74
2023/08/11 02:08:17;;;;;;;2.73;2.53;;;;;;;12.60;100.00;96922.47;5033919;27;102221;-74
2023/08/11 02:10:44;;;;;;;4.97;2.90;;;;;;;12.61;100.00;96921.41;5033821;27;104806;-73
2023/08/11 02:13:12;;;;;;;3.87;3.30;;;;;;;12.62;100.00;96923.03;5033285;27;105594;-74
2023/08/11 02:15:41;;;;;;;3.90;2.90;;;;;;;12.65;100.00;96925.19;5036876;27;101919;-74
2023/08/11 02:18:08;;;;;;;3.43;2.97;;;;;;;12.61;100.00;96927.56;5032943;27;105584;-72
2023/08/11 02:20:35;;;;;;;3.30;3.00;;;;;;;12.61;100.00;96924.09;5033613;27;102268;-72
2023/08/11 02:23:03;;;;;;;3.37;3.10;;;;;;;12.66;100.00;96921.47;5033474;27;104310;-72
2023/08/11 02:25:31;;;;;;;3.67;3.10;;;;;;;12.60;100.00;96925.16;5033126;27;105529;-72
2023/08/11 02:27:58;;;;;;;3.00;2.70;;;;;;;12.46;100.00;96922.06;5033349;27;102041;-72
2023/08/11 02:30:29;;;;;;;3.00;2.80;;;;;;;12.46;100.00;96921.22;5033393;27;105565;-72
2023/08/11 02:32:57;;;;;;;2.77;2.57;;;;;;;12.44;100.00;96918.81;5032708;27;105070;-72
2023/08/11 02:35:24;;;;;;;3.07;2.80;;;;;;;12.39;100.00;96925.97;5033351;27;101955;-72
2023/08/11 02:37:52;;;;;;;2.43;2.30;;;;;;;12.39;100.00;96923.28;5036143;27;104386;-72
2023/08/11 02:40:20;;;;;;;2.80;2.60;;;;;;;12.26;100.00;96929.00;5051580;27;101823;-73
2023/08/11 02:42:53;;;;;;;2.90;2.70;;;;;;;12.16;100.00;96926.19;5033250;27;105937;-72
2023/08/11 02:45:21;;;;;;;3.50;2.70;;;;;;;12.13;100.00;96935.50;5032557;27;106023;-72
2023/08/11 02:47:48;;;;;;;2.80;2.60;;;;;;;12.20;100.00;96927.28;5033104;27;101938;-71
2023/08/11 02:50:17;;;;;;;3.10;2.90;;;;;;;12.19;100.00;96926.50;5033211;27;105085;-72
2023/08/11 02:52:44;;;;;;;2.93;2.63;;;;;;;12.25;100.00;96930.03;5032542;27;105608;-72
2023/08/11 02:55:12;;;;;;;4.57;3.40;;;;;;;12.31;100.00;96932.53;5032844;27;102363;-72
2023/08/11 02:57:39;;;;;;;4.17;3.47;;;;;;;12.29;100.00;96921.31;5032589;27;104180;-73
2023/08/11 03:00:12;;;;;;;3.20;3.00;;;;;;;12.25;100.00;96919.38;5019258;27;104948;-74
2023/08/11 03:02:39;;;;;;;4.43;3.37;;;;;;;12.32;100.00;96925.34;5033010;27;104855;-73
2023/08/11 03:05:09;;;;;;;4.77;3.77;;;;;;;12.37;100.00;96925.41;5032357;27;105752;-78
2023/08/11 03:07:39;;;;;;;3.63;3.30;;;;;;;12.37;100.00;96922.75;5032907;27;101836;-77
2023/08/11 03:10:09;;;;;;;3.20;3.00;;;;;;;12.21;100.00;96923.59;5032604;27;105905;-73
2023/08/11 03:12:37;;;;;;;3.50;3.20;;;;;;;12.18;100.00;96921.41;5032281;27;104505;-73
2023/08/11 03:15:06;;;;;;;5.30;2.80;;;;;;;12.06;100.00;96915.41;5032103;27;102148;-73
2023/08/11 03:17:35;;;;;;;2.97;2.77;;;;;;;12.11;100.00;96918.13;5050806;27;102783;-73
2023/08/11 03:20:07;;;;;;;2.40;2.30;;;;;;;12.02;100.00;96920.41;5032030;27;105178;-73
2023/08/11 03:22:34;;;;;;;2.90;2.70;;;;;;;11.99;100.00;96920.09;5036055;27;101776;-73
2023/08/11 03:25:03;;;;;;;5.77;3.07;;;;;;;12.08;100.00;96923.94;5015171;27;104951;-73
2023/08/11 03:27:29;;;;;;;3.43;3.13;;;;;;;12.06;100.00;96918.06;5032618;27;102247;-73
2023/08/11 03:29:57;;;;;;;3.87;3.17;;;;;;;12.04;100.00;96920.19;5032492;27;103829;-73
2023/08/11 03:32:24;;;;;;;3.60;3.30;;;;;;;12.08;100.00;96926.59;5031862;27;105561;-73
2023/08/11 03:34:54;;;;;;;3.40;3.10;;;;;;;12.11;100.00;96920.81;5032283;27;102198;-71
2023/08/11 03:37:21;;;;;;;3.40;3.10;;;;;;;12.01;100.00;96923.31;5032346;27;105297;-71
2023/08/11 03:39:48;;;;;;;3.17;2.97;;;;;;;11.96;100.00;96920.59;5031804;27;105496;-73
2023/08/11 03:42:16;;;;;;;3.37;3.07;;;;;;;11.91;100.00;96928.50;5035725;27;101937;-73
2023/08/11 03:44:43;;;;;;;3.50;3.20;;;;;;;11.73;100.00;96926.91;5031462;27;105606;-72
2023/08/11 03:47:10;;;;;;;3.40;3.10;;;;;;;11.73;100.00;96931.44;5032320;27;101897;-72
2023/08/11 03:49:37;;;;;;;4.10;3.70;;;;;;;11.71;100.00;96934.34;5032171;27;105239;-72
2023/08/11 03:52:05;;;;;;;4.03;3.73;;;;;;;11.68;100.00;96934.84;5049791;27;103059;-72
2023/08/11 03:54:33;;;;;;;3.70;3.40;;;;;;;11.77;100.00;96944.03;5015624;27;101932;-73
2023/08/11 03:57:00;;;;;;;4.53;3.97;;;;;;;11.79;100.00;96939.28;5032049;27;105892;-76
2023/08/11 03:59:29;;;;;;;4.53;4.13;;;;;;;11.77;100.00;96941.38;5031072;27;105449;-76
2023/08/11 04:02:22;;;;;;;5.33;4.43;;;;;;;11.90;100.00;96940.22;5050473;27;101773;-75
2023/08/11 04:04:49;;;;;;;5.07;4.40;;;;;;;11.81;100.00;96939.03;5034609;27;104844;-74
2023/08/11 04:07:16;;;;;;;4.47;4.03;;;;;;;11.84;100.00;96943.88;5032022;27;101936;-74
2023/08/11 04:09:46;;;;;;;5.30;3.77;;;;;;;11.88;100.00;96939.69;5031693;27;105481;-75
2023/08/11 04:12:13;;;;;;;4.00;3.70;;;;;;;11.84;100.00;96944.66;5031213;27;105067;-75
2023/08/11 04:14:41;;;;;;;4.23;3.83;;;;;;;11.92;100.00;96948.78;5031832;27;101954;-75
2023/08/11 04:17:08;;;;;;;4.30;3.90;;;;;;;11.96;100.00;96947.25;5031726;27;104882;-75
2023/08/11 04:19:35;;;;;;;3.93;3.63;;;;;;;11.96;100.00;96957.91;5031124;27;105667;-75
2023/08/11 04:22:05;;;;;;;3.90;3.60;;;;;;;11.95;100.00;96956.28;5031841;27;102035;-75
2023/08/11 04:24:31;;;;;;;4.00;3.70;;;;;;;12.01;100.00;96950.81;5031696;27;105009;-74
2023/08/11 04:26:58;;;;;;;3.70;3.40;;;;;;;12.03;100.00;96961.19;5036383;27;106082;-77
2023/08/11 04:29:26;;;;;;;4.33;3.70;;;;;;;12.12;100.00;96959.72;5035262;27;104982;-77
2023/08/11 04:31:54;;;;;;;4.07;3.77;;;;;;;12.21;100.00;96961.72;5034782;27;105647;-77
2023/08/11 04:34:21;;;;;;;4.20;3.90;;;;;;;12.29;100.00;96963.16;5035288;27;102320;-77
2023/08/11 04:36:49;;;;;;;5.17;4.17;;;;;;;12.39;100.00;96973.97;5035260;27;104846;-76
2023/08/11 04:39:16;;;;;;;4.70;3.90;;;;;;;12.43;100.00;96973.22;5052832;27;103033;-77
2023/08/11 04:41:44;;;;;;;4.07;3.77;;;;;;;12.45;100.00;96975.63;5035349;27;102057;-77
2023/08/11 04:44:11;;;;;;;4.70;4.30;;;;;;;12.61;100.00;96974.78;5035089;27;105305;-76
2023/08/11 04:46:38;;;;;;;4.73;3.90;;;;;;;12.68;100.00;96972.72;5034495;27;105135;-76
2023/08/11 04:49:06;;;;;;;4.97;4.47;;;;;;;12.84;100.00;96974.50;5038685;27;101966;-76
2023/08/11 04:51:33;;;;;;;4.73;4.33;;;;;;;12.90;100.00;96970.84;5034473;27;105457;-76
2023/08/11 04:54:02;;;;;;;5.60;4.63;;;;;;;12.93;100.00;96981.03;5035127;27;101973;-74
2023/08/11 04:56:30;;;;;;;4.93;4.47;;;;;;;12.99;100.00;96980.06;5034598;27;105507;-74
2023/08/11 04:58:57;;;;;;;5.83;5.20;;;;;;;13.04;100.00;96983.56;5033502;27;105621;-74
2023/08/11 05:01:24;;;;;;;7.17;5.30;;;;;;;13.12;100.00;96979.66;5034872;27;101968;-74
2023/08/11 05:03:51;;;;;;;8.83;5.77;;;;;;;13.31;100.00;96988.94;5034848;27;104376;-74
2023/08/11 05:06:20;;;;;;;7.57;5.40;;;;;;;13.38;100.00;96989.53;5034141;27;105796;-74
2023/08/11 05:08:47;;;;;;;7.23;5.13;;;;;;;13.49;100.00;96988.56;5034859;27;102259;-73
2023/08/11 05:11:14;;;;;;;6.00;4.67;;;;;;;13.62;100.00;96990.84;5037650;27;105476;-76
2023/08/11 05:13:41;;;;;;;6.80;4.97;;;;;;;13.75;100.00;96985.06;5034794;27;101835;-76
2023/08/11 05:16:09;;;;;;;6.37;4.47;;;;;;;13.86;100.00;96989.41;5034605;27;105008;-76
2023/08/11 05:18:35;;;;;;;4.73;4.33;;;;;;;14.00;100.00;96988.72;5033949;27;103982;-75
2023/08/11 05:21:05;;;;;;;5.70;4.80;;;;;;;14.15;100.00;96990.69;5052899;27;101832;-74
2023/08/11 05:23:34;;;;;;;5.00;4.50;;;;;;;14.24;100.00;96997.19;5034737;27;105083;-81
2023/08/11 05:26:01;;;;;;;5.90;4.87;;;;;;;14.38;100.00;97003.72;5052225;27;103116;-74
2023/08/11 05:28:28;;;;;;;4.80;4.40;;;;;;;14.54;100.00;96997.34;5034311;27;102044;-76
2023/08/11 05:30:56;;;;;;;4.93;4.53;;;;;;;14.61;100.00;96995.25;5034239;27;105389;-72
2023/08/11 05:33:24;;;;;;;5.23;4.83;;;;;;;14.77;100.00;96999.63;5037144;27;101902;-74
2023/08/11 05:35:51;;;;;;;5.10;4.70;;;;;;;14.90;100.00;96996.44;5034334;27;105627;-71
2023/08/11 05:38:21;;;;;;;6.37;4.73;;;;;;;14.99;100.00;96994.88;5033294;27;105681;-73
2023/08/11 05:40:49;;;;;;;4.97;4.57;;;;;;;15.03;100.00;96999.44;5034030;27;101885;-74
2023/08/11 05:43:16;;;;;;;5.30;4.80;;;;;;;15.09;100.00;96998.38;5052656;27;103239;-74
2023/08/11 05:45:43;;;;;;;5.57;4.87;;;;;;;15.25;100.00;96999.22;5033538;27;105744;-76
2023/08/11 05:48:10;;;;;;;7.63;5.30;;;;;;;15.39;100.00;97000.38;5034220;27;102218;-77
2023/08/11 05:50:38;;;;;;;6.03;5.43;;;;;;;15.46;100.00;97000.91;5034262;27;105057;-72
2023/08/11 05:53:05;;;;;;;6.43;5.43;;;;;;;15.55;100.00;96992.09;5036601;27;105383;-73
2023/08/11 05:55:32;;;;;;;6.43;5.30;;;;;;;15.73;100.00;96993.44;5034156;27;105335;-84
2023/08/11 05:58:00;;;;;;;5.63;5.13;;;;;;;15.74;100.00;96995.03;5032936;27;105698;-82
2023/08/11 06:00:27;;;;;;;5.53;5.03;;;;;;;15.89;100.00;96995.03;5033666;27;101939;-82
2023/08/11 06:02:54;;;;;;;5.60;5.20;;;;;;;16.12;100.00;96987.25;5034428;27;104623;-77
2023/08/11 06:05:21;;;;;;;6.87;4.80;;;;;;;16.34;100.00;96992.28;5033886;27;105567;-77
2023/08/11 06:07:49;;;;;;;5.67;5.17;;;;;;;16.47;100.00;96995.25;5035095;27;102228;-79
2023/08/11 06:10:15;;;;;;;5.27;4.33;;;;;;;16.55;100.00;96999.25;5034462;27;105407;-78
2023/08/11 06:12:42;;;;;;;5.30;4.80;;;;;;;16.66;100.00;96995.47;5033879;27;105347;-78
2023/08/11 06:15:11;;;;;;;4.53;4.13;;;;;;;16.87;100.00;96988.94;5038029;27;102014;-78
2023/08/11 06:17:38;;;;;;;5.23;4.30;;;;;;;16.95;100.00;96994.53;5038665;27;105163;-78
2023/08/11 06:20:08;;;;;;;4.43;3.97;;;;;;;17.09;100.00;96989.38;5040782;27;102310;-78
2023/08/11 06:22:35;;;;;;;4.93;4.50;;;;;;;17.22;100.00;96986.88;5034377;27;105056;-79
2023/08/11 06:25:02;;;;;;;4.37;3.97;;;;;;;17.18;100.00;96987.72;5033547;27;105311;-79
2023/08/11 06:27:29;;;;;;;4.50;4.10;;;;;;;17.41;100.00;96992.47;5033967;27;101929;-79
2023/08/11 06:29:56;;;;;;;4.03;3.63;;;;;;;17.63;100.00;96987.47;5034181;27;105307;-79
2023/08/11 06:32:25;;;;;;;4.40;4.00;;;;;;;17.73;100.00;96988.22;5033621;27;105585;-79
2023/08/11 06:34:51;;;;;;;4.40;3.93;;;;;;;17.81;100.00;96974.13;5034137;27;101988;-81
2023/08/11 06:37:18;;;;;;;4.67;4.27;;;;;;;17.97;100.00;96982.88;5044114;27;105401;-75
2023/08/11 06:39:45;;;;;;;4.50;4.10;;;;;;;18.04;100.00;96984.16;5050913;27;102186;-81
2023/08/11 06:42:12;;;;;;;5.57;4.47;;;;;;;18.01;100.00;96979.38;5050909;27;105277;-79
2023/08/11 06:44:59;;;;;;;5.00;4.17;;;;;;;18.17;100.00;96988.91;5050470;27;105244;-78
2023/08/11 06:47:29;;;;;;;7.30;4.57;;;;;;;18.34;100.00;96977.72;5050893;27;101901;-78
2023/08/11 06:49:56;;;;;;;4.80;3.87;;;;;;;18.46;100.00;96986.22;5049170;27;105382;-78
2023/08/11 06:52:22;;;;;;;6.63;3.80;;;;;;;18.58;100.00;96975.88;5049600;27;105868;-78
2023/08/11 06:54:49;;;;;;;3.93;3.53;;;;;;;18.76;100.00;96975.09;5049878;27;102237;-78
2023/08/11 06:57:20;;;;;;;3.80;3.50;;;;;;;18.80;100.00;96981.53;5051449;27;102630;-78
2023/08/11 06:59:47;;;;;;;5.03;3.67;;;;;;;18.71;100.00;96983.25;5052513;27;105855;-78
2023/08/11 07:02:14;;;;;;;4.13;3.53;;;;;;;18.87;100.00;96973.91;5050119;27;104285;-78
2023/08/11 07:04:42;;;;;;;10.43;4.17;;;;;;;18.98;100.00;96975.38;5049288;27;105218;-78
2023/08/11 07:07:09;;;;;;;5.93;3.93;;;;;;;19.03;100.00;96969.91;5049850;27;101983;-78
2023/08/11 07:09:36;;;;;;;6.30;3.83;;;;;;;19.13;100.00;96975.97;5049696;27;103899;-78
2023/08/11 07:12:03;;;;;;;4.53;3.80;;;;;;;19.38;100.00;96983.75;5049191;27;103999;-78
2023/08/11 07:14:30;;;;;;;3.50;3.20;;;;;;;19.55;100.00;96980.53;5049780;27;101956;-78
2023/08/11 07:16:57;;;;;;;3.93;3.57;;;;;;;19.53;100.00;96980.03;5049442;27;105329;-78
2023/08/11 07:19:24;;;;;;;5.07;3.40;;;;;;;19.83;100.00;96979.59;5048896;27;105640;-78
2023/08/11 07:21:53;;;;;;;3.93;3.50;;;;;;;20.07;100.00;96980.28;5053116;27;102119;-79
2023/08/11 07:24:20;;;;;;;3.73;3.43;;;;;;;20.29;100.00;96980.44;5049181;27;102933;-76
2023/08/11 07:26:47;;;;;;;4.10;3.40;;;;;;;20.38;100.00;96978.66;5049502;27;102086;-76
2023/08/11 07:29:14;;;;;;;4.33;3.93;;;;;;;20.29;100.00;96975.03;5049319;27;105487;-76
2023/08/11 07:31:41;;;;;;;4.43;3.93;;;;;;;20.20;100.00;96979.50;5048722;27;105107;-76
2023/08/11 07:34:08;;;;;;;4.50;4.07;;;;;;;20.13;100.00;96979.91;5049489;27;102002;-76
2023/08/11 07:36:34;;;;;;;4.10;3.60;;;;;;;20.44;100.00;96990.97;5049327;27;105509;-74
2023/08/11 07:39:07;;;;;;;4.50;4.07;;;;;;;20.70;100.00;96978.59;5048498;27;103998;-74
2023/08/11 07:41:34;;;;;;;8.80;3.50;;;;;;;21.04;100.00;96984.41;5052853;27;101864;-74
2023/08/11 07:44:01;;;;;;;3.87;3.47;;;;;;;21.20;100.00;96989.19;5048523;27;105325;-74
2023/08/11 07:46:28;;;;;;;4.27;3.23;;;;;;;21.25;100.00;96988.31;5050540;27;101855;-74
2023/08/11 07:48:55;;;;;;;5.47;3.40;;;;;;;21.44;100.00;96995.19;5049081;27;105404;-74
2023/08/11 07:51:21;;;;;;;4.00;3.47;;;;;;;21.60;100.00;96995.63;5048391;27;105042;-74
2023/08/11 07:53:49;;;;;;;4.20;3.80;;;;;;;21.36;100.00;96986.97;5049049;27;102162;-74
2023/08/11 07:56:17;;;;;;;4.07;3.67;;;;;;;21.40;100.00;96982.53;5049164;27;105327;-74
2023/08/11 07:58:46;;;;;;;4.50;3.80;;;;;;;21.29;100.00;96987.38;5047843;27;105598;-74
2023/08/11 08:01:13;;;;;;;4.50;3.47;;;;;;;21.61;100.00;96989.09;5048905;27;102004;-74
2023/08/11 08:03:40;;;;;;;4.70;3.70;;;;;;;21.76;100.00;96994.22;5051746;27;105451;-74
2023/08/11 08:06:07;;;;;;;3.67;3.37;;;;;;;21.69;100.00;96993.84;5048710;27;101970;-74
2023/08/11 08:08:34;;;;;;;4.13;3.13;;;;;;;21.96;100.00;96988.31;5048906;27;105729;-74
2023/08/11 08:11:02;;;;;;;4.03;3.63;;;;;;;21.64;100.00;96989.28;5048286;27;105050;-74
2023/08/11 08:13:31;;;;;;;3.20;2.90;;;;;;;22.28;100.00;96988.06;5048956;27;102098;-74
2023/08/11 08:15:58;;;;;;;3.00;2.77;;;;;;;22.57;100.00;96989.19;5048744;27;105291;-74
2023/08/11 08:18:25;;;;;;;4.37;3.00;;;;;;;22.63;100.00;96989.84;5048091;27;105154;-74
2023/08/11 08:20:52;;;;;;;3.57;2.80;;;;;;;22.94;100.00;96987.91;5048710;27;102007;-74
2023/08/11 08:23:19;;;;;;;4.97;3.30;;;;;;;23.13;100.00;96983.81;5048660;27;105175;-74
2023/08/11 08:25:46;;;;;;;3.27;2.70;;;;;;;23.29;100.00;96978.78;5051621;27;106063;-74
2023/08/11 08:28:13;;;;;;;4.30;3.10;;;;;;;23.39;100.00;96975.75;5048635;27;105554;-74
2023/08/11 08:30:42;;;;;;;4.00;3.10;;;;;;;23.30;100.00;96983.91;5048064;27;105642;-74
2023/08/11 08:33:09;;;;;;;3.30;3.00;;;;;;;23.44;100.00;96978.31;5048594;27;102108;-74
2023/08/11 08:35:37;;;;;;;5.97;2.63;;;;;;;23.81;100.00;96975.78;5048428;27;105314;-74
2023/08/11 08:38:05;;;;;;;5.77;2.90;;;;;;;23.53;100.00;96984.53;5047745;27;104459;-74
2023/08/11 08:40:35;;;;;;;3.00;2.63;;;;;;;23.82;100.00;96980.09;5048598;27;102015;-74
2023/08/11 08:43:03;;;;;;;2.80;2.60;;;;;;;23.95;100.00;96981.06;5048437;27;105387;-74
2023/08/11 08:45:35;;;;;;;2.60;2.40;;;;;;;23.92;100.00;96979.03;5040152;27;105255;-78
2023/08/11 08:48:13;;;;;;;3.10;2.60;;;;;;;23.68;100.00;96981.38;5025848;27;103641;-76
2023/08/11 08:50:59;;;;;;;3.20;3.00;;;;;;;23.44;100.00;96981.03;5025395;27;105689;-77
2023/08/11 08:53:27;;;;;;;5.73;2.73;;;;;;;24.06;100.00;96966.03;5024536;27;102044;-77
2023/08/11 08:55:58;;;;;;;3.10;2.90;;;;;;;24.51;100.00;96968.03;5034233;27;104919;-76
2023/08/11 08:58:32;;;;;;;4.77;2.63;;;;;;;24.29;100.00;96967.44;5025167;27;106856;-77
2023/08/11 09:01:04;;;;;;;2.97;2.60;;;;;;;24.40;100.00;96963.25;5025851;27;101994;-76
2023/08/11 09:03:36;;;;;;;2.73;2.40;;;;;;;24.80;100.00;96957.22;5020881;28;105301;-77
2023/08/11 09:06:07;;;;;;;2.50;2.30;;;;;;;24.77;100.00;96952.44;5027851;27;105120;-76
2023/08/11 09:08:35;;;;;;;2.73;2.40;;;;;;;24.97;100.00;96956.34;5032257;27;102164;-77
2023/08/11 09:11:02;;;;;;;2.70;2.50;;;;;;;24.56;100.00;96962.41;5041476;27;105042;-77
2023/08/11 09:13:29;;;;;;;2.50;2.30;;;;;;;24.80;100.00;96961.88;5037237;27;102212;-77
2023/08/11 09:15:56;;;;;;;4.53;2.87;;;;;;;25.05;100.00;96958.19;5029747;28;105827;-76
2023/08/11 09:18:23;;;;;;;2.90;2.67;;;;;;;24.96;100.00;96954.75;5014478;28;105856;-81
2023/08/11 09:20:53;;;;;;;2.73;2.47;;;;;;;25.48;100.00;96959.56;5022102;27;102018;-78
2023/08/11 09:23:20;;;;;;;3.33;2.13;;;;;;;25.67;100.00;96954.44;5054465;27;105385;-82
2023/08/11 09:25:47;;;;;;;2.50;2.30;;;;;;;25.32;100.00;96950.41;5054980;27;105423;-83
2023/08/11 09:28:15;;;;;;;3.70;2.37;;;;;;;25.84;100.00;96958.97;5074163;27;101904;-87
2023/08/11 09:30:42;;;;;;;3.23;2.40;;;;;;;25.88;100.00;96954.47;5055618;27;105684;-81
2023/08/11 09:33:09;;;;;;;2.90;2.20;;;;;;;25.61;100.00;96955.00;5076652;27;102737;-81
2023/08/11 09:35:37;;;;;;;2.50;2.30;;;;;;;26.05;100.00;96954.31;5055384;27;105413;-83
2023/08/11 09:38:05;;;;;;;2.40;2.20;;;;;;;26.46;100.00;96951.47;5054738;27;105329;-85
2023/08/11 09:40:33;;;;;;;2.20;1.83;;;;;;;26.70;100.00;96957.03;5073803;27;101853;-80
2023/08/11 09:43:00;;;;;;;2.03;1.87;;;;;;;26.84;100.00;96954.75;5051933;27;104945;-75
2023/08/11 09:45:27;;;;;;;2.20;2.10;;;;;;;26.86;100.00;96957.94;5042367;27;104256;-75
2023/08/11 09:47:54;;;;;;;2.50;2.30;;;;;;;27.05;100.00;96956.25;5034776;27;102121;-84
2023/08/11 09:50:23;;;;;;;2.23;2.00;;;;;;;27.14;100.00;96964.31;5035186;27;105190;-87
2023/08/11 09:52:50;;;;;;;2.27;2.17;;;;;;;27.17;99.06;96955.47;5033694;28;105647;-85
2023/08/11 09:55:21;;;;;;;2.37;2.17;;;;;;;27.50;95.52;96956.09;5016785;27;105952;-85
2023/08/11 09:58:24;;;;;;;3.47;1.97;;;;;;;27.64;80.55;96951.06;5050556;27;105489;-84
2023/08/11 10:00:53;;;;;;;4.83;3.43;;;;;;;27.88;80.07;96948.28;5043106;27;102276;-91
2023/08/11 10:03:26;;;;;;;3.87;2.97;;;;;;;27.67;85.79;96945.69;5017316;27;104403;-92
2023/08/11 10:05:55;;;;;;;2.17;2.00;;;;;;;27.87;89.24;96946.69;4998642;27;105178;-92
2023/08/11 10:08:24;;;;;;;4.77;2.03;;;;;;;27.83;79.27;96949.34;5052196;27;101895;-93
2023/08/11 10:10:53;;;;;;;4.20;2.03;;;;;;;28.08;82.09;96950.84;5052091;27;105148;-93
2023/08/11 10:13:24;;;;;;;2.73;1.80;;;;;;;28.40;83.81;96941.56;5037480;27;105344;-92
2023/08/11 10:15:52;;;;;;;2.58;1.98;;;;;;;28.11;87.74;96952.09;5049158;27;102019;-82
2023/08/11 10:18:20;;;;;;;2.30;2.10;;;;;;;28.28;76.66;96949.03;5036125;27;104988;-82
2023/08/11 10:20:50;;;;;;;3.90;2.37;;;;;;;27.69;73.40;96945.38;5034348;27;101839;-82
2023/08/11 10:23:18;;;;;;;2.20;2.00;;;;;;;28.25;93.80;96952.44;5052026;27;102596;-82
2023/08/11 10:25:45;;;;;;;2.80;2.00;;;;;;;28.42;84.70;96943.94;5032885;27;105055;-82
2023/08/11 10:28:15;;;;;;;2.47;2.10;;;;;;;27.66;80.38;96949.59;5034246;27;101893;-81
2023/08/11 10:30:42;;;;;;;2.38;2.10;;;;;;;27.67;83.36;96945.69;5034139;27;104165;-81
2023/08/11 10:33:10;;;;;;;2.13;1.80;;;;;;;28.12;94.55;96945.47;5033600;27;105674;-81
2023/08/11 10:35:49;;;;;;;2.17;1.97;;;;;;;28.10;92.85;96943.06;5033948;27;101938;-82
2023/08/11 10:38:24;;;;;;;2.40;2.20;;;;;;;28.70;86.60;96941.94;5036821;27;105132;-81
2023/08/11 10:40:51;;;;;;;1.95;1.85;;;;;;;28.75;85.27;96942.50;5014046;28;101942;-82
2023/08/11 10:43:30;;;;;;;2.60;2.00;;;;;;;28.47;74.09;96939.03;5024125;27;103746;-82
2023/08/11 10:45:57;;;;;;;2.15;1.90;;;;;;;27.03;84.10;96942.13;5026775;27;104080;-82
2023/08/11 10:48:24;;;;;;;2.10;2.00;;;;;;;27.80;79.19;96935.56;5013904;28;101900;-82
2023/08/11 10:50:50;;;;;;;1.77;1.67;;;;;;;27.89;69.30;96942.47;5014091;28;105540;-82
2023/08/11 10:53:19;;;;;;;2.37;1.70;;;;;;;27.88;68.37;96940.06;5032387;27;103015;-82
2023/08/11 10:56:00;;;;;;;1.90;1.80;;;;;;;28.06;70.68;96935.91;5014827;28;102003;-82
2023/08/11 10:58:30;;;;;;;2.37;2.17;;;;;;;27.91;64.28;96925.72;5013554;28;105189;-82
2023/08/11 11:00:58;;;;;;;2.28;1.80;;;;;;;28.46;68.86;96940.19;5034277;27;102810;-82
2023/08/11 11:03:26;;;;;;;1.80;1.70;;;;;;;28.35;68.05;96936.34;5014833;27;104533;-82
2023/08/11 11:05:53;;;;;;;1.95;1.80;;;;;;;28.72;64.82;96934.97;5013100;28;103968;-82
2023/08/11 11:08:19;;;;;;;2.13;2.00;;;;;;;28.81;72.05;96938.34;5025494;27;102077;-82
2023/08/11 11:10:46;;;;;;;1.67;1.58;;;;;;;29.01;81.15;96934.56;5033660;27;105035;-82
2023/08/11 11:13:13;;;;;;;1.77;1.67;;;;;;;29.19;67.54;96937.69;5033249;27;105408;-82
2023/08/11 11:15:42;;;;;;;2.00;1.90;;;;;;;28.81;75.79;96937.53;5016905;28;102100;-82
2023/08/11 11:18:09;;;;;;;2.22;1.98;;;;;;;28.48;68.22;96937.06;5014492;28;105208;-82
2023/08/11 11:20:36;;;;;;;2.13;1.85;;;;;;;28.30;88.33;96927.59;5013291;28;104359;-82
2023/08/11 11:23:03;;;;;;;2.50;1.80;;;;;;;28.87;85.68;96922.44;5033100;27;101850;-82
2023/08/11 11:25:29;;;;;;;2.00;1.90;;;;;;;29.07;62.68;96921.38;5031143;27;106158;-82